Time;durP1;ratioP1;P1;durP2;ratioP2;P2;SDS_P1;SDS_P2;PMS_P1;PMS_P2;Temp;Humidity;BMP_temperature;BMP_pressure;BME280_temperature;BME280_humidity;BME280_pressure;Samples;Min_cycle;Max_cycle;Signal;HPM_P1;HPM_P2
2023/05/31 00:02:03;;;;;;;5.40;2.50;;;;;;;16.10;100.00;100571.77;106738;1256;68745;-92
2023/05/31 20:54:58;;;;;;;3.40;2.10;;;;;;;16.58;73.34;100808.29;106321;1257;62430;-91
2023/05/31 20:57:47;;;;;;;2.80;1.40;;;;;;;16.45;73.76;100808.35;106441;1254;60537;-92
2023/05/31 21:00:36;;;;;;;2.20;1.50;;;;;;;16.31;74.63;100813.61;106313;1254;75580;-91
2023/05/31 21:03:25;;;;;;;3.80;1.80;;;;;;;16.23;75.14;100812.76;106375;1254;70025;-91
2023/05/31 21:06:13;;;;;;;2.50;1.30;;;;;;;16.27;74.99;100815.20;106443;1257;71204;-91
2023/05/31 21:09:02;;;;;;;5.40;1.60;;;;;;;16.14;75.36;100816.31;106041;1254;60491;-90
2023/05/31 21:11:51;;;;;;;2.90;1.90;;;;;;;16.06;75.71;100817.85;106182;1254;60450;-91
2023/05/31 21:14:52;;;;;;;3.30;1.90;;;;;;;16.00;75.86;100818.05;106468;1256;75051;-91
2023/05/31 21:17:41;;;;;;;2.30;1.60;;;;;;;15.93;75.77;100818.84;106293;1254;66698;-91
2023/05/31 21:20:31;;;;;;;4.40;1.60;;;;;;;15.87;76.11;100822.41;106354;1254;73994;-91
2023/05/31 21:23:20;;;;;;;1.90;1.30;;;;;;;15.77;76.71;100824.10;106409;1253;60572;-92
2023/05/31 21:26:08;;;;;;;4.10;1.90;;;;;;;15.75;76.42;100821.51;106335;1254;61509;-93
2023/05/31 21:28:57;;;;;;;2.40;1.50;;;;;;;15.65;75.95;100820.94;106294;1259;75172;-92
2023/05/31 21:31:45;;;;;;;2.00;1.60;;;;;;;15.58;76.43;100822.23;106092;1260;69834;-93
2023/05/31 21:34:36;;;;;;;2.70;1.60;;;;;;;15.53;76.65;100822.14;106076;1254;72729;-92
2023/05/31 21:37:25;;;;;;;3.70;1.30;;;;;;;15.43;77.66;100824.82;106145;1254;60521;-91
2023/05/31 21:40:14;;;;;;;2.40;1.70;;;;;;;15.35;77.77;100827.05;106197;1254;60461;-91
2023/05/31 21:43:02;;;;;;;6.30;2.00;;;;;;;15.29;77.92;100827.48;107025;1254;74237;-93
2023/05/31 21:45:51;;;;;;;3.20;1.70;;;;;;;15.18;79.42;100827.18;106292;1254;70075;-91
2023/05/31 21:48:40;;;;;;;5.40;1.90;;;;;;;14.96;83.72;100827.82;106420;1254;71420;-91
2023/05/31 21:51:29;;;;;;;9.40;1.80;;;;;;;14.85;85.93;100828.48;106185;1254;63395;-92
2023/05/31 21:54:18;;;;;;;3.30;1.80;;;;;;;14.80;87.31;100829.60;106367;1254;61219;-93
2023/05/31 21:57:07;;;;;;;6.20;1.90;;;;;;;14.64;89.11;100830.23;106074;1254;73635;-92
2023/05/31 21:59:55;;;;;;;3.70;1.50;;;;;;;14.58;89.98;100831.63;106213;1257;68514;-93
2023/05/31 22:02:44;;;;;;;4.10;2.50;;;;;;;14.51;91.02;100838.20;106412;1254;73766;-92
2023/05/31 22:05:33;;;;;;;3.00;1.80;;;;;;;14.40;93.19;100840.86;106222;1254;60500;-93
2023/05/31 22:08:22;;;;;;;3.50;1.60;;;;;;;14.48;93.15;100841.20;106300;1254;61090;-94
2023/05/31 22:11:11;;;;;;;4.30;1.80;;;;;;;14.40;93.73;100839.21;106405;1253;74377;-92
2023/05/31 22:14:00;;;;;;;2.70;2.20;;;;;;;14.38;94.17;100840.17;106354;1258;69010;-92
2023/05/31 22:16:48;;;;;;;2.60;1.90;;;;;;;14.39;94.06;100843.95;106106;1254;72400;-92
2023/05/31 22:19:37;;;;;;;4.20;1.80;;;;;;;14.32;94.22;100843.34;106639;1259;61322;-93
2023/05/31 22:22:27;;;;;;;2.00;1.80;;;;;;;14.20;95.36;100846.29;106718;1253;60322;-92
2023/05/31 22:25:16;;;;;;;4.70;2.30;;;;;;;14.10;96.69;100848.83;106249;1254;74311;-91
2023/05/31 22:28:06;;;;;;;3.60;1.90;;;;;;;14.07;97.42;100856.12;106230;1254;68592;-91
2023/05/31 22:30:56;;;;;;;3.10;1.90;;;;;;;13.93;98.76;100859.70;106397;1254;72624;-93
2023/05/31 22:33:47;;;;;;;3.10;2.00;;;;;;;13.80;100.00;100857.36;106179;1260;60378;-91
2023/05/31 22:36:36;;;;;;;4.50;2.00;;;;;;;13.79;100.00;100857.20;106187;1256;60031;-92
2023/05/31 22:39:24;;;;;;;3.40;2.00;;;;;;;13.80;100.00;100856.38;106265;1257;74920;-92
2023/05/31 22:42:13;;;;;;;4.20;1.80;;;;;;;13.75;100.00;100859.17;106369;1257;69964;-92
2023/05/31 22:45:01;;;;;;;4.50;1.90;;;;;;;13.70;100.00;100857.62;106203;1258;72530;-91
2023/05/31 22:47:50;;;;;;;4.70;2.20;;;;;;;13.70;100.00;100859.44;105898;1254;506206;-91
2023/05/31 22:50:39;;;;;;;5.20;2.20;;;;;;;13.68;100.00;100860.17;106344;1253;61431;-92
2023/05/31 22:53:29;;;;;;;2.30;1.40;;;;;;;13.65;100.00;100859.38;106170;1256;74172;-93
2023/05/31 22:56:18;;;;;;;4.70;2.00;;;;;;;13.61;100.00;100861.98;106415;1260;67185;-91
2023/05/31 22:59:07;;;;;;;3.70;1.80;;;;;;;13.59;100.00;100861.41;106293;1254;74256;-93
2023/05/31 23:01:55;;;;;;;2.50;1.40;;;;;;;13.55;100.00;100866.00;106464;1254;60543;-93
2023/05/31 23:04:45;;;;;;;4.60;1.90;;;;;;;13.51;100.00;100866.31;106313;1258;60838;-93
2023/05/31 23:07:35;;;;;;;2.80;1.40;;;;;;;13.44;100.00;100867.05;106201;1258;74757;-93
2023/05/31 23:10:24;;;;;;;2.20;1.60;;;;;;;13.35;100.00;100866.84;106247;1259;67653;-92
2023/05/31 23:13:14;;;;;;;2.70;1.60;;;;;;;13.32;100.00;100867.00;106318;1259;72853;-92
2023/05/31 23:16:05;;;;;;;2.40;1.80;;;;;;;13.28;100.00;100867.51;106292;1254;60441;-91
2023/05/31 23:18:55;;;;;;;3.80;1.60;;;;;;;13.28;100.00;100866.42;106281;1258;60423;-91
2023/05/31 23:21:44;;;;;;;5.00;1.90;;;;;;;13.27;100.00;100868.11;106262;1254;74811;-92
2023/05/31 23:24:33;;;;;;;2.00;1.40;;;;;;;13.25;100.00;100869.38;106525;1254;68645;-92
2023/05/31 23:27:23;;;;;;;3.40;1.50;;;;;;;13.20;100.00;100867.42;106476;1254;72597;-93
2023/05/31 23:30:13;;;;;;;2.60;1.60;;;;;;;13.14;100.00;100870.52;106493;1254;60545;-92
2023/05/31 23:33:02;;;;;;;2.80;1.60;;;;;;;13.08;100.00;100868.40;106230;1257;60946;-92
2023/05/31 23:35:50;;;;;;;4.10;1.80;;;;;;;13.06;100.00;100868.41;106206;1254;73784;-92
2023/05/31 23:38:40;;;;;;;3.30;1.70;;;;;;;13.00;100.00;100868.80;106467;1254;67429;-91
2023/05/31 23:41:29;;;;;;;7.30;2.10;;;;;;;12.99;100.00;100869.52;106078;1254;71764;-92
2023/05/31 23:44:17;;;;;;;3.00;1.70;;;;;;;12.92;100.00;100870.99;106269;1254;60624;-92
2023/05/31 23:47:06;;;;;;;2.40;1.30;;;;;;;12.84;100.00;100870.98;106536;1254;60389;-92
2023/05/31 23:49:55;;;;;;;2.70;1.50;;;;;;;12.92;100.00;100870.71;106834;1257;75199;-92
2023/05/31 23:52:43;;;;;;;2.50;1.50;;;;;;;12.96;100.00;100865.20;106446;1259;68853;-93
2023/05/31 23:55:31;;;;;;;2.30;1.70;;;;;;;13.00;100.00;100862.55;106438;1256;72643;-92
2023/05/31 23:58:21;;;;;;;5.50;1.60;;;;;;;12.96;100.00;100859.55;106377;1259;60482;-93
